createdAt,value
2018-02-22T00:01:45.468Z,84.60
2018-02-22T00:04:13.010Z,84.50
2018-02-22T00:06:40.607Z,84.60
2018-02-22T00:09:08.157Z,84.50
2018-02-22T00:11:35.691Z,85.00
2018-02-22T00:14:03.289Z,84.70
2018-02-22T00:16:30.825Z,84.70
2018-02-22T00:18:58.412Z,84.60
2018-02-22T00:21:26.717Z,84.40
2018-02-22T00:23:54.295Z,84.40
2018-02-22T00:26:21.825Z,84.50
2018-02-22T00:28:49.412Z,84.40
2018-02-22T00:31:16.964Z,84.50
2018-02-22T00:33:44.548Z,84.40
2018-02-22T00:36:12.088Z,84.40
2018-02-22T00:38:39.666Z,84.40
2018-02-22T00:41:07.197Z,84.40
2018-02-22T00:43:34.772Z,84.40
2018-02-22T00:46:02.314Z,84.40
2018-02-22T00:48:29.892Z,84.20
2018-02-22T00:50:57.421Z,84.30
2018-02-22T00:53:25.764Z,84.20
2018-02-22T00:55:53.305Z,84.20
2018-02-22T00:58:20.878Z,84.30
2018-02-22T01:00:48.412Z,84.30
2018-02-22T01:03:15.991Z,84.20
2018-02-22T01:05:43.539Z,84.30
2018-02-22T01:08:11.123Z,84.20
2018-02-22T01:10:38.660Z,84.40
2018-02-22T01:13:06.241Z,84.10
2018-02-22T01:15:33.786Z,84.10
2018-02-22T01:18:01.368Z,84.30
2018-02-22T01:20:28.899Z,84.10
2018-02-22T01:22:56.476Z,84.10
2018-02-22T01:25:24.009Z,84.10
2018-02-22T01:27:51.591Z,84.20
2018-02-22T01:30:19.133Z,84.30
2018-02-22T01:32:46.713Z,84.10
2018-02-22T01:35:14.248Z,85.00
2018-02-22T01:37:41.785Z,84.00
2018-02-22T01:40:09.366Z,84.20
2018-02-22T01:42:37.022Z,83.90
2018-02-22T01:45:04.560Z,84.00
2018-02-22T01:47:32.155Z,83.90
2018-02-22T01:49:59.808Z,83.90
2018-02-22T01:52:27.354Z,84.00
2018-02-22T01:54:54.944Z,83.80
2018-02-22T01:57:22.484Z,84.10
2018-02-22T01:59:50.067Z,83.80
2018-02-22T02:02:17.603Z,84.10
2018-02-22T02:04:45.186Z,84.20
2018-02-22T02:07:12.721Z,84.30
2018-02-22T02:09:40.302Z,84.00
2018-02-22T02:12:07.836Z,84.20
2018-02-22T02:14:35.432Z,84.00
2018-02-22T02:17:02.962Z,84.20
2018-02-22T02:19:30.539Z,84.10
2018-02-22T02:21:58.094Z,84.30
2018-02-22T02:24:25.676Z,84.30
2018-02-22T02:26:53.213Z,84.30
2018-02-22T02:29:20.796Z,84.30
2018-02-22T02:31:48.337Z,84.40
2018-02-22T02:34:15.922Z,84.40
2018-02-22T02:36:43.457Z,84.10
2018-02-22T02:39:11.052Z,84.30
2018-02-22T02:41:39.357Z,84.40
2018-02-22T02:44:06.941Z,84.30
2018-02-22T02:46:34.481Z,84.20
2018-02-22T02:49:02.060Z,84.10
2018-02-22T02:51:29.605Z,83.90
2018-02-22T02:53:57.192Z,84.00
2018-02-22T02:56:24.836Z,84.20
2018-02-22T02:58:52.425Z,84.20
2018-02-22T03:01:19.971Z,84.20
2018-02-22T03:03:47.552Z,84.20
2018-02-22T03:06:15.087Z,84.30
2018-02-22T03:08:42.671Z,84.40
2018-02-22T03:11:10.207Z,84.70
2018-02-22T03:13:37.792Z,84.70
2018-02-22T03:16:05.322Z,84.70
2018-02-22T03:18:32.899Z,84.70
2018-02-22T03:21:00.437Z,85.10
2018-02-22T03:23:28.020Z,84.90
2018-02-22T03:25:55.566Z,84.80
2018-02-22T03:28:23.147Z,84.90
2018-02-22T03:30:50.690Z,84.80
2018-02-22T03:33:18.271Z,85.00
2018-02-22T03:35:45.802Z,84.90
2018-02-22T03:38:13.385Z,84.80
2018-02-22T03:40:40.919Z,84.70
2018-02-22T03:43:08.500Z,84.90
2018-02-22T03:45:36.032Z,85.10
2018-02-22T03:48:03.616Z,85.20
2018-02-22T03:50:31.162Z,85.20
2018-02-22T03:52:58.748Z,85.40
2018-02-22T03:55:26.280Z,85.30
2018-02-22T03:57:53.858Z,85.50
2018-02-22T04:00:21.391Z,85.80
2018-02-22T04:02:49.056Z,85.70
2018-02-22T04:05:16.633Z,85.60
2018-02-22T04:07:44.373Z,85.70
2018-02-22T04:10:11.929Z,86.00
2018-02-22T04:12:39.528Z,85.80
2018-02-22T04:15:07.288Z,85.90
2018-02-22T04:17:34.884Z,85.80
2018-02-22T04:20:03.286Z,86.20
2018-02-22T04:22:30.905Z,86.20
2018-02-22T04:24:59.336Z,86.20
2018-02-22T04:27:26.925Z,86.10
2018-02-22T04:29:54.660Z,86.30
2018-02-22T04:32:22.336Z,85.90
2018-02-22T04:34:49.877Z,86.80
2018-02-22T04:37:17.458Z,86.30
2018-02-22T04:39:45.002Z,86.00
2018-02-22T04:42:12.597Z,86.00
2018-02-22T04:44:40.146Z,86.40
2018-02-22T04:47:07.732Z,85.90
2018-02-22T04:49:36.186Z,86.30
2018-02-22T04:52:03.725Z,86.20
2018-02-22T04:54:31.313Z,86.10
2018-02-22T04:56:58.894Z,86.10
2018-02-22T04:59:27.201Z,86.20
2018-02-22T05:01:54.837Z,86.20
2018-02-22T05:04:23.194Z,86.50
2018-02-22T05:06:50.733Z,86.50
2018-02-22T05:09:18.514Z,86.30
2018-02-22T05:11:46.479Z,85.90
2018-02-22T05:14:14.115Z,86.30
2018-02-22T05:16:41.632Z,86.50
2018-02-22T05:19:09.985Z,86.40
2018-02-22T05:21:39.034Z,86.30
2018-02-22T05:24:06.615Z,86.30
2018-02-22T05:26:34.149Z,86.20
2018-02-22T05:29:01.729Z,86.20
2018-02-22T05:31:29.316Z,86.70
2018-02-22T05:33:56.856Z,86.30
2018-02-22T05:36:24.441Z,86.60
2018-02-22T05:38:51.976Z,86.40
2018-02-22T05:41:19.560Z,86.40
2018-02-22T05:43:47.103Z,86.40
2018-02-22T05:46:14.684Z,86.80
2018-02-22T05:48:42.216Z,86.80
2018-02-22T05:51:09.792Z,86.90
2018-02-22T05:53:37.328Z,86.50
2018-02-22T05:56:04.905Z,86.70
2018-02-22T05:58:32.540Z,87.00
2018-02-22T06:01:00.126Z,87.10
2018-02-22T06:03:27.664Z,86.40
2018-02-22T06:05:55.242Z,87.00
2018-02-22T06:08:27.503Z,86.60
2018-02-22T06:10:55.265Z,86.80
2018-02-22T06:13:23.042Z,86.90
2018-02-22T06:15:50.629Z,87.60
2018-02-22T06:18:18.930Z,86.60
2018-02-22T06:20:46.515Z,86.50
2018-02-22T06:23:14.048Z,86.90
2018-02-22T06:25:41.635Z,87.00
2018-02-22T06:28:09.173Z,86.90
2018-02-22T06:30:36.766Z,86.90
2018-02-22T06:33:04.311Z,87.10
2018-02-22T06:35:31.896Z,86.70
2018-02-22T06:37:59.443Z,86.60
2018-02-22T06:40:27.024Z,86.50
2018-02-22T06:42:54.655Z,86.90
2018-02-22T06:45:22.243Z,86.90
2018-02-22T06:47:49.772Z,86.90
2018-02-22T06:50:17.353Z,87.00
2018-02-22T06:52:44.890Z,87.00
2018-02-22T06:55:12.477Z,86.80
2018-02-22T06:57:40.012Z,86.80
2018-02-22T07:00:07.609Z,87.00
2018-02-22T07:02:35.912Z,87.20
2018-02-22T07:05:04.258Z,87.00
2018-02-22T07:07:31.802Z,87.00
2018-02-22T07:09:59.384Z,86.60
2018-02-22T07:12:26.920Z,86.70
2018-02-22T07:14:54.505Z,86.80
2018-02-22T07:17:22.046Z,87.20
2018-02-22T07:19:49.637Z,87.30
2018-02-22T07:22:17.960Z,87.00
2018-02-22T07:24:45.604Z,87.00
2018-02-22T07:27:13.145Z,87.10
2018-02-22T07:29:41.495Z,87.00
2018-02-22T07:32:09.027Z,87.00
2018-02-22T07:34:36.634Z,87.00
2018-02-22T07:37:04.946Z,86.80
2018-02-22T07:39:32.533Z,86.70
2018-02-22T07:42:00.065Z,87.10
2018-02-22T07:44:27.656Z,86.80
2018-02-22T07:46:55.194Z,87.00
2018-02-22T07:49:22.790Z,86.90
2018-02-22T07:51:50.331Z,86.80
2018-02-22T07:54:17.912Z,87.00
2018-02-22T07:56:45.453Z,87.10
2018-02-22T07:59:13.029Z,87.00
2018-02-22T08:01:40.564Z,87.00
2018-02-22T08:04:08.140Z,86.70
2018-02-22T08:06:35.682Z,86.90
2018-02-22T08:09:03.264Z,86.90
2018-02-22T08:11:30.809Z,87.10
2018-02-22T08:13:58.401Z,86.70
2018-02-22T08:16:25.948Z,86.80
2018-02-22T08:18:55.040Z,86.90
2018-02-22T08:21:22.579Z,86.90
2018-02-22T08:23:50.153Z,86.70
2018-02-22T08:26:17.689Z,87.00
2018-02-22T08:28:45.279Z,87.10
2018-02-22T08:31:12.821Z,86.90
2018-02-22T08:33:40.415Z,87.00
2018-02-22T08:36:07.948Z,87.20
2018-02-22T08:38:35.537Z,87.00
2018-02-22T08:41:03.841Z,87.90
2018-02-22T08:43:31.430Z,87.30
2018-02-22T08:45:58.988Z,87.20
2018-02-22T08:48:26.567Z,87.50
2018-02-22T08:50:54.101Z,87.60
2018-02-22T08:53:21.762Z,87.30
2018-02-22T08:55:49.298Z,87.40
2018-02-22T08:58:16.901Z,87.20
2018-02-22T09:00:44.565Z,87.10
2018-02-22T09:03:12.159Z,87.40
2018-02-22T09:05:40.462Z,88.20
2018-02-22T09:08:08.003Z,87.40
2018-02-22T09:10:36.348Z,87.60
2018-02-22T09:13:03.879Z,87.50
2018-02-22T09:15:31.467Z,87.40
2018-02-22T09:17:58.999Z,87.60
2018-02-22T09:20:26.590Z,87.60
2018-02-22T09:22:54.144Z,87.50
2018-02-22T09:25:21.730Z,87.60
2018-02-22T09:27:50.033Z,87.90
2018-02-22T09:30:17.625Z,87.90
2018-02-22T09:32:45.159Z,87.90
2018-02-22T09:35:12.752Z,87.90
2018-02-22T09:37:40.293Z,87.90
2018-02-22T09:40:07.877Z,87.90
2018-02-22T09:42:35.418Z,87.60
2018-02-22T09:45:03.004Z,87.60
2018-02-22T09:47:30.545Z,87.90
2018-02-22T09:49:58.195Z,87.80
2018-02-22T09:52:25.735Z,88.20
2018-02-22T09:54:53.314Z,88.10
2018-02-22T09:57:20.860Z,88.00
2018-02-22T09:59:48.444Z,88.30
2018-02-22T10:02:15.976Z,88.10
2018-02-22T10:04:43.552Z,88.20
2018-02-22T10:07:11.092Z,87.80
2018-02-22T10:09:38.698Z,87.90
2018-02-22T10:12:06.229Z,88.30
2018-02-22T10:14:33.817Z,88.20
2018-02-22T10:17:01.361Z,88.10
2018-02-22T10:19:28.898Z,88.30
2018-02-22T10:21:56.483Z,88.30
2018-02-22T10:24:24.064Z,88.20
2018-02-22T10:26:51.610Z,87.90
2018-02-22T10:29:19.201Z,87.80
2018-02-22T10:31:47.513Z,87.90
2018-02-22T10:34:15.104Z,87.90
2018-02-22T10:36:42.642Z,88.10
2018-02-22T10:39:10.224Z,87.60
2018-02-22T10:41:37.768Z,87.20
2018-02-22T10:44:05.353Z,87.20
2018-02-22T10:46:32.899Z,87.30
2018-02-22T10:49:00.489Z,87.40
2018-02-22T10:51:28.023Z,87.30
2018-02-22T10:53:55.612Z,86.70
2018-02-22T10:56:23.926Z,88.00
2018-02-22T10:58:51.513Z,87.30
2018-02-22T11:01:24.871Z,87.30
2018-02-22T11:03:52.483Z,87.10
2018-02-22T11:06:20.015Z,87.20
2018-02-22T11:08:47.676Z,86.90
2018-02-22T11:11:15.222Z,86.70
2018-02-22T11:13:42.813Z,86.80
2018-02-22T11:16:10.365Z,86.80
2018-02-22T11:18:37.959Z,86.90
2018-02-22T11:21:05.496Z,86.60
2018-02-22T11:23:33.083Z,87.00
2018-02-22T11:26:00.611Z,87.30
2018-02-22T11:28:28.203Z,87.20
2018-02-22T11:30:56.520Z,88.10
2018-02-22T11:33:24.143Z,87.50
2018-02-22T11:35:51.686Z,87.10
2018-02-22T11:38:19.263Z,86.80
2018-02-22T11:40:46.798Z,87.60
2018-02-22T11:43:14.381Z,87.40
2018-02-22T11:45:42.696Z,87.40
2018-02-22T11:48:10.283Z,87.30
2018-02-22T11:50:37.821Z,87.70
2018-02-22T11:53:05.412Z,87.90
2018-02-22T11:55:32.964Z,87.80
2018-02-22T11:58:00.495Z,87.90
2018-02-22T12:00:28.089Z,87.30
2018-02-22T12:02:55.642Z,87.60
2018-02-22T12:05:23.221Z,87.70
2018-02-22T12:07:50.799Z,87.40
2018-02-22T12:10:19.100Z,88.10
2018-02-22T12:12:46.686Z,87.30
2018-02-22T12:15:14.233Z,87.40
2018-02-22T12:17:41.820Z,87.40
2018-02-22T12:20:09.365Z,87.30
2018-02-22T12:22:36.965Z,86.80
2018-02-22T12:25:04.535Z,86.50
2018-02-22T12:27:32.121Z,86.60
2018-02-22T12:29:59.658Z,86.90
2018-02-22T12:32:28.034Z,86.90
2018-02-22T12:34:56.356Z,86.70
2018-02-22T12:37:23.888Z,86.70
2018-02-22T12:39:51.470Z,86.70
2018-02-22T12:42:19.012Z,86.80
2018-02-22T12:44:46.601Z,87.10
2018-02-22T12:47:14.142Z,87.00
2018-02-22T12:49:41.727Z,87.20
2018-02-22T12:52:09.261Z,87.30
2018-02-22T12:54:36.840Z,87.40
2018-02-22T12:57:04.428Z,87.40
2018-02-22T12:59:32.013Z,87.80
2018-02-22T13:02:00.318Z,88.00
2018-02-22T13:04:27.912Z,87.90
2018-02-22T13:06:55.450Z,87.80
2018-02-22T13:09:23.025Z,87.90
2018-02-22T13:11:50.569Z,87.90
2018-02-22T13:14:18.152Z,88.40
2018-02-22T13:16:45.726Z,88.10
2018-02-22T13:19:13.304Z,87.90
2018-02-22T13:21:41.611Z,88.00
2018-02-22T13:24:09.203Z,87.90
2018-02-22T13:26:36.737Z,87.80
2018-02-22T13:29:04.325Z,87.40
2018-02-22T13:31:31.862Z,87.20
2018-02-22T13:34:11.306Z,87.50
2018-02-22T13:36:38.843Z,87.50
2018-02-22T13:39:09.450Z,87.30
2018-02-22T13:41:37.765Z,87.80
2018-02-22T13:44:17.226Z,87.60
2018-02-22T13:46:44.800Z,87.50
2018-02-22T13:49:24.385Z,87.50
2018-02-22T13:51:51.918Z,87.50
2018-02-22T13:54:19.496Z,87.60
2018-02-22T13:56:59.567Z,87.30
2018-02-22T13:59:27.202Z,87.30
2018-02-22T14:02:06.654Z,87.50
2018-02-22T14:04:35.009Z,87.40
2018-02-22T14:07:02.543Z,87.30
2018-02-22T14:09:30.135Z,87.50
2018-02-22T14:11:58.447Z,87.70
2018-02-22T14:14:25.985Z,87.70
2018-02-22T14:16:54.326Z,87.80
2018-02-22T14:19:21.863Z,87.80
2018-02-22T14:21:49.444Z,87.90
2018-02-22T14:24:16.986Z,87.90
2018-02-22T14:26:44.642Z,87.90
2018-02-22T14:29:12.178Z,88.20
2018-02-22T14:31:39.769Z,87.90
2018-02-22T14:34:07.311Z,88.00
2018-02-22T14:36:34.897Z,88.30
2018-02-22T14:39:02.462Z,88.20
2018-02-22T14:41:30.045Z,88.20
2018-02-22T14:43:58.398Z,88.50
2018-02-22T14:46:25.982Z,88.50
2018-02-22T14:48:53.517Z,88.50
2018-02-22T14:51:21.110Z,88.70
2018-02-22T14:53:49.463Z,88.50
2018-02-22T14:56:17.047Z,88.50
2018-02-22T14:58:45.352Z,88.30
2018-02-22T15:01:12.940Z,88.30
2018-02-22T15:03:40.483Z,88.40
2018-02-22T15:06:08.077Z,88.10
2018-02-22T15:08:35.612Z,88.60
2018-02-22T15:11:03.193Z,88.00
2018-02-22T15:13:30.745Z,88.70
2018-02-22T15:15:58.329Z,88.60
2018-02-22T15:18:25.864Z,88.70
2018-02-22T15:20:53.487Z,88.30
2018-02-22T15:23:21.781Z,88.20
2018-02-22T15:25:49.359Z,88.20
2018-02-22T15:28:16.906Z,88.60
2018-02-22T15:30:44.493Z,88.80
2018-02-22T15:33:12.026Z,89.00
2018-02-22T15:35:39.612Z,89.20
2018-02-22T15:38:07.205Z,89.00
2018-02-22T15:40:35.559Z,89.30
2018-02-22T15:43:03.094Z,89.30
2018-02-22T15:45:30.672Z,89.10
2018-02-22T15:47:58.220Z,89.40
2018-02-22T15:50:25.805Z,89.40
2018-02-22T15:52:53.347Z,89.20
2018-02-22T15:55:20.930Z,88.80
2018-02-22T15:57:49.237Z,89.50
2018-02-22T16:00:16.828Z,89.40
2018-02-22T16:02:44.364Z,89.20
2018-02-22T16:05:11.956Z,89.30
2018-02-22T16:07:39.491Z,89.10
2018-02-22T16:10:07.068Z,89.40
2018-02-22T16:12:34.606Z,89.20
2018-02-22T16:15:02.190Z,89.30
2018-02-22T16:17:29.728Z,89.30
2018-02-22T16:19:57.309Z,89.40
2018-02-22T16:22:24.848Z,89.30
2018-02-22T16:24:52.435Z,89.10
2018-02-22T16:27:19.968Z,89.10
2018-02-22T16:29:47.559Z,88.90
2018-02-22T16:32:15.100Z,88.90
2018-02-22T16:34:42.690Z,89.20
2018-02-22T16:37:10.281Z,89.00
2018-02-22T16:39:37.825Z,89.30
2018-02-22T16:42:06.177Z,88.70
2018-02-22T16:44:33.706Z,88.70
2018-02-22T16:47:01.289Z,88.80
2018-02-22T16:49:28.828Z,88.80
2018-02-22T16:51:56.415Z,89.10
2018-02-22T16:54:23.956Z,89.30
2018-02-22T16:56:51.498Z,88.90
2018-02-22T16:59:19.167Z,89.00
2018-02-22T17:01:46.713Z,89.00
2018-02-22T17:04:14.300Z,89.00
2018-02-22T17:06:41.909Z,88.90
2018-02-22T17:09:10.211Z,89.00
2018-02-22T17:11:37.806Z,88.90
2018-02-22T17:14:05.336Z,89.10
2018-02-22T17:16:32.920Z,89.30
2018-02-22T17:19:00.459Z,89.40
2018-02-22T17:21:28.042Z,89.30
2018-02-22T17:23:55.588Z,89.10
2018-02-22T17:26:29.008Z,89.20
2018-02-22T17:29:02.307Z,89.20
2018-02-22T17:31:35.602Z,89.40
2018-02-22T17:34:03.144Z,89.10
2018-02-22T17:36:36.577Z,89.00
2018-02-22T17:39:10.736Z,89.00
2018-02-22T17:41:38.327Z,89.00
2018-02-22T17:44:05.870Z,88.80
2018-02-22T17:46:33.474Z,88.80
2018-02-22T17:49:01.788Z,88.90
2018-02-22T17:51:29.380Z,89.60
2018-02-22T17:53:56.917Z,89.00
2018-02-22T17:56:24.500Z,89.00
2018-02-22T17:58:52.041Z,89.10
2018-02-22T18:01:19.629Z,88.80
2018-02-22T18:03:47.181Z,88.70
2018-02-22T18:06:14.773Z,89.10
2018-02-22T18:08:43.077Z,89.10
2018-02-22T18:11:10.666Z,89.10
2018-02-22T18:13:38.208Z,89.10
2018-02-22T18:16:05.802Z,89.20
2018-02-22T18:18:33.344Z,89.30
2018-02-22T18:21:00.936Z,89.20
2018-02-22T18:23:28.476Z,89.20
2018-02-22T18:25:56.060Z,89.80
2018-02-22T18:28:24.376Z,89.40
2018-02-22T18:30:51.966Z,89.10
2018-02-22T18:33:19.504Z,89.20
2018-02-22T18:35:47.088Z,89.00
2018-02-22T18:38:14.631Z,89.00
2018-02-22T18:40:47.937Z,89.00
2018-02-22T18:43:21.172Z,89.10
2018-02-22T18:45:49.520Z,89.30
2018-02-22T18:48:17.053Z,89.30
2018-02-22T18:50:44.659Z,89.20
2018-02-22T18:53:12.968Z,89.50
2018-02-22T18:55:40.509Z,89.40
2018-02-22T18:58:08.855Z,89.30
2018-02-22T19:00:36.437Z,89.30
2018-02-22T19:03:04.743Z,89.30
2018-02-22T19:05:32.374Z,89.20
2018-02-22T19:07:59.924Z,89.30
2018-02-22T19:10:27.464Z,89.30
2018-02-22T19:12:55.052Z,89.40
2018-02-22T19:15:23.407Z,89.30
2018-02-22T19:17:50.951Z,89.20
2018-02-22T19:20:18.532Z,89.30
2018-02-22T19:22:46.063Z,89.40
2018-02-22T19:25:13.639Z,89.50
2018-02-22T19:27:41.198Z,89.30
2018-02-22T19:30:08.824Z,89.40
2018-02-22T19:32:36.349Z,89.60
2018-02-22T19:35:04.707Z,89.70
2018-02-22T19:37:32.258Z,89.70
2018-02-22T19:39:59.844Z,89.50
2018-02-22T19:42:27.386Z,89.50
2018-02-22T19:44:54.980Z,89.40
2018-02-22T19:47:23.288Z,90.00
2018-02-22T19:49:50.955Z,89.20
2018-02-22T19:52:18.497Z,89.30
2018-02-22T19:54:46.158Z,89.60
2018-02-22T19:57:14.430Z,89.60
2018-02-22T19:59:41.970Z,89.60
2018-02-22T20:02:10.319Z,89.50
2018-02-22T20:04:37.861Z,89.40
2018-02-22T20:07:05.445Z,89.50
2018-02-22T20:09:32.987Z,89.60
2018-02-22T20:12:00.575Z,89.60
2018-02-22T20:14:28.878Z,89.60
2018-02-22T20:16:56.462Z,89.50
2018-02-22T20:19:23.999Z,89.40
2018-02-22T20:21:51.879Z,89.50
2018-02-22T20:24:19.415Z,89.50
2018-02-22T20:26:47.768Z,89.70
2018-02-22T20:29:15.300Z,89.70
2018-02-22T20:31:42.893Z,89.70
2018-02-22T20:34:10.481Z,89.50
2018-02-22T20:36:38.016Z,89.60
2018-02-22T20:39:06.325Z,89.40
2018-02-22T20:41:33.919Z,89.40
2018-02-22T20:44:01.454Z,89.60
2018-02-22T20:46:29.036Z,89.60
2018-02-22T20:48:56.574Z,89.60
2018-02-22T20:51:42.981Z,89.60
2018-02-22T20:54:10.564Z,89.40
2018-02-22T20:56:38.152Z,89.50
2018-02-22T20:59:06.473Z,89.50
2018-02-22T21:01:34.055Z,89.40
2018-02-22T21:04:01.594Z,89.50
2018-02-22T21:06:29.174Z,89.50
2018-02-22T21:08:56.707Z,89.40
2018-02-22T21:11:24.292Z,89.60
2018-02-22T21:13:51.829Z,89.60
2018-02-22T21:16:19.411Z,89.30
2018-02-22T21:18:46.953Z,89.50
2018-02-22T21:21:14.542Z,89.30
2018-02-22T21:23:42.078Z,89.30
2018-02-22T21:26:09.672Z,89.50
2018-02-22T21:28:37.209Z,89.40
2018-02-22T21:31:04.788Z,89.10
2018-02-22T21:33:32.332Z,89.20
2018-02-22T21:35:59.913Z,88.90
2018-02-22T21:38:27.455Z,89.00
2018-02-22T21:40:55.045Z,89.80
2018-02-22T21:43:23.472Z,88.80
2018-02-22T21:45:51.056Z,88.70
2018-02-22T21:48:18.592Z,88.80
2018-02-22T21:50:46.180Z,88.70
2018-02-22T21:53:13.716Z,89.00
2018-02-22T21:55:41.314Z,88.90
2018-02-22T21:58:08.850Z,88.70
2018-02-22T22:00:36.442Z,88.50
2018-02-22T22:03:04.752Z,88.60
2018-02-22T22:05:32.352Z,88.60
2018-02-22T22:07:59.892Z,88.20
2018-02-22T22:10:27.486Z,88.10
2018-02-22T22:12:55.025Z,88.10
2018-02-22T22:15:22.620Z,88.00
2018-02-22T22:17:50.932Z,88.10
2018-02-22T22:20:18.518Z,88.00
2018-02-22T22:22:46.069Z,88.00
2018-02-22T22:25:13.656Z,88.00
2018-02-22T22:27:41.214Z,88.10
2018-02-22T22:30:08.804Z,87.90
2018-02-22T22:32:37.112Z,88.00
2018-02-22T22:35:04.716Z,88.00
2018-02-22T22:37:32.263Z,87.70
2018-02-22T22:39:59.855Z,87.90
2018-02-22T22:42:27.408Z,87.80
2018-02-22T22:44:54.997Z,87.60
2018-02-22T22:47:22.543Z,87.80
2018-02-22T22:49:50.890Z,87.90
2018-02-22T22:52:18.438Z,87.80
2018-02-22T22:54:46.029Z,87.70
2018-02-22T22:57:14.344Z,88.60
2018-02-22T22:59:41.936Z,87.80
2018-02-22T23:02:09.480Z,88.00
2018-02-22T23:04:37.063Z,87.90
2018-02-22T23:07:04.609Z,87.70
2018-02-22T23:09:32.210Z,87.60
2018-02-22T23:12:00.528Z,88.00
2018-02-22T23:14:28.120Z,87.80
2018-02-22T23:16:55.670Z,88.00
2018-02-22T23:19:23.259Z,88.00
2018-02-22T23:21:50.799Z,87.70
2018-02-22T23:24:18.384Z,88.50
2018-02-22T23:26:46.700Z,87.90
2018-02-22T23:29:14.290Z,87.80
2018-02-22T23:31:41.826Z,87.60
2018-02-22T23:34:09.421Z,87.60
2018-02-22T23:36:36.965Z,87.70
2018-02-22T23:39:04.584Z,87.50
2018-02-22T23:41:45.880Z,87.50
2018-02-22T23:44:14.238Z,87.30
2018-02-22T23:46:42.548Z,87.50
2018-02-22T23:49:10.142Z,87.50
2018-02-22T23:51:37.688Z,87.10
2018-02-22T23:54:05.276Z,87.20
2018-02-22T23:56:33.593Z,87.20
2018-02-22T23:59:01.205Z,87.10
